createdAt,value
2022-08-31T00:01:20.546Z,102283.16
2022-08-31T00:03:59.767Z,102281.63
2022-08-31T00:06:26.414Z,102280.50
2022-08-31T00:08:53.346Z,102287.88
2022-08-31T00:11:27.958Z,102281.88
2022-08-31T00:13:59.941Z,102275.41
2022-08-31T00:16:28.375Z,102280.66
2022-08-31T00:18:55.050Z,102280.78
2022-08-31T00:21:26.158Z,102290.63
2022-08-31T00:23:53.662Z,102277.84
2022-08-31T00:26:20.624Z,102291.81
2022-08-31T00:28:47.374Z,102284.31
2022-08-31T00:31:14.539Z,102277.72
2022-08-31T00:33:41.534Z,102283.16
2022-08-31T00:36:13.620Z,102287.88
2022-08-31T00:38:41.432Z,102284.63
2022-08-31T00:41:10.576Z,102283.94
2022-08-31T00:43:52.808Z,102282.59
2022-08-31T00:46:25.575Z,102287.81
2022-08-31T00:48:58.472Z,102293.28
2022-08-31T00:51:25.891Z,102293.41
2022-08-31T00:53:52.516Z,102298.50
2022-08-31T00:56:19.484Z,102298.56
2022-08-31T00:58:46.216Z,102308.25
2022-08-31T01:01:22.063Z,102313.91
2022-08-31T01:03:48.676Z,102304.47
2022-08-31T01:06:17.100Z,102306.81
2022-08-31T01:08:45.083Z,102306.00
2022-08-31T01:11:11.989Z,102310.97
2022-08-31T01:13:38.513Z,102303.31
2022-08-31T01:16:11.007Z,102309.41
2022-08-31T01:18:38.341Z,102312.59
2022-08-31T01:21:23.054Z,102311.75
2022-08-31T01:23:49.886Z,102316.38
2022-08-31T01:26:19.114Z,102312.75
2022-08-31T01:28:45.593Z,102308.81
2022-08-31T01:31:39.298Z,102307.91
2022-08-31T01:34:05.756Z,102305.44
2022-08-31T01:36:33.573Z,102314.69
2022-08-31T01:39:00.319Z,102302.75
2022-08-31T01:41:26.868Z,102295.53
2022-08-31T01:43:54.589Z,102301.72
2022-08-31T01:46:21.550Z,102299.16
2022-08-31T01:48:49.015Z,102300.06
2022-08-31T01:51:18.046Z,102304.84
2022-08-31T01:53:48.496Z,102301.13
2022-08-31T01:56:18.874Z,102296.03
2022-08-31T01:58:45.404Z,102299.47
2022-08-31T02:01:33.822Z,102302.16
2022-08-31T02:03:58.384Z,102301.72
2022-08-31T02:06:25.597Z,102300.88
2022-08-31T02:08:52.130Z,102299.34
2022-08-31T02:11:18.807Z,102298.88
2022-08-31T02:13:45.780Z,102297.84
2022-08-31T02:16:12.285Z,102304.81
2022-08-31T02:18:38.760Z,102301.22
2022-08-31T02:21:05.387Z,102302.22
2022-08-31T02:23:31.841Z,102309.94
2022-08-31T02:25:58.318Z,102306.69
2022-08-31T02:28:24.797Z,102302.22
2022-08-31T02:30:51.334Z,102309.06
2022-08-31T02:33:17.877Z,102311.56
2022-08-31T02:35:44.439Z,102299.19
2022-08-31T02:38:11.405Z,102296.13
2022-08-31T02:40:39.272Z,102300.81
2022-08-31T02:43:14.248Z,102306.09
2022-08-31T02:45:51.129Z,102300.81
2022-08-31T02:48:20.343Z,102291.03
2022-08-31T02:50:48.716Z,102301.81
2022-08-31T02:53:16.703Z,102301.59
2022-08-31T02:55:43.345Z,102297.50
2022-08-31T02:58:11.048Z,102299.56
2022-08-31T03:00:38.633Z,102291.78
2022-08-31T03:03:05.412Z,102287.16
2022-08-31T03:05:32.089Z,102290.22
2022-08-31T03:07:58.560Z,102287.84
2022-08-31T03:10:25.843Z,102289.25
2022-08-31T03:12:53.345Z,102286.31
2022-08-31T03:15:23.911Z,102287.94
2022-08-31T03:17:50.960Z,102286.91
2022-08-31T03:20:19.392Z,102292.09
2022-08-31T03:22:45.932Z,102282.38
2022-08-31T03:25:12.623Z,102289.81
2022-08-31T03:27:39.117Z,102288.41
2022-08-31T03:30:11.519Z,102298.50
2022-08-31T03:32:39.031Z,102287.56
2022-08-31T03:35:06.247Z,102291.63
2022-08-31T03:37:32.796Z,102282.25
2022-08-31T03:39:59.445Z,102289.34
2022-08-31T03:42:26.578Z,102294.06
2022-08-31T03:44:54.045Z,102286.44
2022-08-31T03:47:21.153Z,102284.44
2022-08-31T03:49:47.666Z,102291.38
2022-08-31T03:52:14.281Z,102289.19
2022-08-31T03:54:40.835Z,102293.41
2022-08-31T03:57:08.102Z,102289.66
2022-08-31T03:59:34.556Z,102295.00
2022-08-31T04:02:01.030Z,102301.31
2022-08-31T04:04:27.536Z,102292.13
2022-08-31T04:06:54.005Z,102304.31
2022-08-31T04:09:20.489Z,102304.31
2022-08-31T04:11:46.886Z,102306.88
2022-08-31T04:14:15.414Z,102301.25
2022-08-31T04:16:43.656Z,102309.69
2022-08-31T04:19:11.397Z,102302.66
2022-08-31T04:21:38.193Z,102307.09
2022-08-31T04:24:06.021Z,102299.59
2022-08-31T04:26:34.806Z,102307.44
2022-08-31T04:29:03.279Z,102312.91
2022-08-31T04:31:30.066Z,102322.06
2022-08-31T04:33:57.461Z,102314.50
2022-08-31T04:36:25.874Z,102310.53
2022-08-31T04:38:54.219Z,102315.16
2022-08-31T04:41:22.114Z,102316.88
2022-08-31T04:43:50.834Z,102323.69
2022-08-31T04:46:18.645Z,102322.84
2022-08-31T04:48:45.402Z,102322.88
2022-08-31T04:51:14.442Z,102331.66
2022-08-31T04:53:42.078Z,102328.81
2022-08-31T04:56:14.916Z,102331.97
2022-08-31T04:58:47.257Z,102332.34
2022-08-31T05:01:17.371Z,102336.72
2022-08-31T05:03:44.016Z,102339.97
2022-08-31T05:06:17.583Z,102343.28
2022-08-31T05:08:44.598Z,102342.22
2022-08-31T05:11:17.019Z,102347.06
2022-08-31T05:13:43.969Z,102356.59
2022-08-31T05:16:11.843Z,102345.81
2022-08-31T05:18:42.559Z,102348.50
2022-08-31T05:21:17.854Z,102352.88
2022-08-31T05:23:48.037Z,102348.38
2022-08-31T05:26:21.601Z,102354.50
2022-08-31T05:28:51.190Z,102344.50
2022-08-31T05:31:18.079Z,102351.06
2022-08-31T05:33:44.941Z,102346.75
2022-08-31T05:36:12.386Z,102349.97
2022-08-31T05:38:39.899Z,102354.31
2022-08-31T05:41:06.945Z,102355.25
2022-08-31T05:43:34.405Z,102357.34
2022-08-31T05:46:01.061Z,102350.50
2022-08-31T05:48:33.393Z,102354.28
2022-08-31T05:51:03.187Z,102360.88
2022-08-31T05:53:29.693Z,102367.69
2022-08-31T05:56:00.832Z,102364.41
2022-08-31T05:58:27.967Z,102370.31
2022-08-31T06:00:54.404Z,102373.88
2022-08-31T06:03:20.823Z,102374.31
2022-08-31T06:05:47.350Z,102363.91
2022-08-31T06:08:15.446Z,102371.81
2022-08-31T06:10:42.031Z,102365.13
2022-08-31T06:13:08.566Z,102370.28
2022-08-31T06:15:35.466Z,102372.56
2022-08-31T06:18:06.125Z,102371.13
2022-08-31T06:20:32.569Z,102376.53
2022-08-31T06:22:58.983Z,102377.44
2022-08-31T06:25:26.054Z,102379.00
2022-08-31T06:27:52.955Z,102386.91
2022-08-31T06:30:21.930Z,102386.09
2022-08-31T06:32:48.626Z,102384.66
2022-08-31T06:35:15.125Z,102388.03
2022-08-31T06:37:41.537Z,102389.66
2022-08-31T06:40:08.583Z,102391.66
2022-08-31T06:42:35.086Z,102398.00
2022-08-31T06:45:01.866Z,102395.16
2022-08-31T06:47:28.360Z,102392.06
2022-08-31T06:49:57.151Z,102388.63
2022-08-31T06:52:24.163Z,102395.28
2022-08-31T06:54:50.616Z,102396.78
2022-08-31T06:57:17.186Z,102389.19
2022-08-31T06:59:44.236Z,102396.44
2022-08-31T07:02:11.115Z,102395.47
2022-08-31T07:04:39.168Z,102404.69
2022-08-31T07:07:07.550Z,102395.00
2022-08-31T07:09:34.122Z,102396.78
2022-08-31T07:12:00.559Z,102393.31
2022-08-31T07:14:27.804Z,102397.78
2022-08-31T07:16:56.511Z,102405.84
2022-08-31T07:19:23.391Z,102401.16
2022-08-31T07:21:55.542Z,102408.84
2022-08-31T07:24:25.719Z,102402.69
2022-08-31T07:26:54.513Z,102411.56
2022-08-31T07:29:22.377Z,102406.78
2022-08-31T07:31:50.396Z,102411.31
2022-08-31T07:34:25.932Z,102408.78
2022-08-31T07:37:16.115Z,102399.25
2022-08-31T07:40:06.879Z,102410.25
2022-08-31T07:42:37.906Z,102408.41
2022-08-31T07:45:06.200Z,102415.16
2022-08-31T07:47:35.816Z,102404.34
2022-08-31T07:50:02.323Z,102404.69
2022-08-31T07:52:32.231Z,102410.47
2022-08-31T07:55:09.360Z,102423.06
2022-08-31T07:57:42.187Z,102414.00
2022-08-31T08:00:09.267Z,102419.69
2022-08-31T08:02:39.867Z,102414.47
2022-08-31T08:05:12.743Z,102420.75
2022-08-31T08:07:40.486Z,102413.75
2022-08-31T08:10:14.127Z,102411.50
2022-08-31T08:12:57.086Z,102417.00
2022-08-31T08:15:26.648Z,102413.94
2022-08-31T08:17:53.140Z,102408.56
2022-08-31T08:20:34.541Z,102412.53
2022-08-31T08:23:23.117Z,102421.94
2022-08-31T08:25:53.423Z,102433.13
2022-08-31T08:28:40.164Z,102426.94
2022-08-31T08:31:13.095Z,102423.31
2022-08-31T08:33:39.756Z,102422.53
2022-08-31T08:36:07.906Z,102432.38
2022-08-31T08:38:36.074Z,102430.06
2022-08-31T08:41:06.242Z,102445.19
2022-08-31T08:43:35.843Z,102436.75
2022-08-31T08:46:25.316Z,102425.56
2022-08-31T08:48:55.752Z,102429.44
2022-08-31T08:51:26.356Z,102424.94
2022-08-31T08:53:59.952Z,102437.03
2022-08-31T08:56:33.406Z,102426.50
2022-08-31T08:59:00.559Z,102435.22
2022-08-31T09:01:29.061Z,102430.25
2022-08-31T09:04:07.974Z,102431.06
2022-08-31T09:07:07.086Z,102427.81
2022-08-31T09:09:41.410Z,102429.97
2022-08-31T09:12:20.774Z,102429.75
2022-08-31T09:15:11.332Z,102425.00
2022-08-31T09:17:59.945Z,102424.41
2022-08-31T09:20:28.254Z,102412.22
2022-08-31T09:22:57.106Z,102421.94
2022-08-31T09:25:33.372Z,102413.56
2022-08-31T09:28:01.675Z,102418.88
2022-08-31T09:30:39.488Z,102424.69
2022-08-31T09:33:07.527Z,102410.38
2022-08-31T09:35:40.628Z,102413.84
2022-08-31T09:38:16.251Z,102411.47
2022-08-31T09:40:48.549Z,102422.53
2022-08-31T09:43:24.919Z,102422.34
2022-08-31T09:46:07.337Z,102412.50
2022-08-31T09:48:44.064Z,102422.06
2022-08-31T09:51:29.745Z,102420.63
2022-08-31T09:54:22.190Z,102411.41
2022-08-31T09:56:56.988Z,102412.47
2022-08-31T09:59:30.724Z,102420.13
2022-08-31T10:02:00.549Z,102412.25
2022-08-31T10:04:31.806Z,102409.41
2022-08-31T10:07:14.141Z,102412.22
2022-08-31T10:09:51.008Z,102411.44
2022-08-31T10:12:42.601Z,102408.25
2022-08-31T10:15:32.425Z,102405.66
2022-08-31T10:18:14.129Z,102403.94
2022-08-31T10:20:48.246Z,102398.44
2022-08-31T10:23:21.159Z,102404.72
2022-08-31T10:25:54.593Z,102403.03
2022-08-31T10:28:37.241Z,102412.53
2022-08-31T10:31:22.277Z,102383.19
2022-08-31T10:34:26.341Z,102389.84
2022-08-31T10:36:59.985Z,102392.34
2022-08-31T10:39:45.709Z,102388.78
2022-08-31T10:42:19.516Z,102383.28
2022-08-31T10:44:57.448Z,102378.22
2022-08-31T10:47:33.811Z,102381.78
2022-08-31T10:50:03.362Z,102386.50
2022-08-31T10:52:33.801Z,102378.69
2022-08-31T10:55:10.413Z,102384.78
2022-08-31T10:58:15.002Z,102378.31
2022-08-31T11:00:56.880Z,102359.25
2022-08-31T11:03:35.549Z,102372.03
2022-08-31T11:06:02.406Z,102370.91
2022-08-31T11:08:50.055Z,102396.88
2022-08-31T11:11:25.215Z,102366.22
2022-08-31T11:14:04.998Z,102365.09
2022-08-31T11:17:19.171Z,102362.91
2022-08-31T11:19:51.053Z,102356.25
2022-08-31T11:22:38.702Z,102361.72
2022-08-31T11:25:28.453Z,102359.22
2022-08-31T11:28:46.270Z,102351.66
2022-08-31T11:31:23.533Z,102353.09
2022-08-31T11:34:15.105Z,102349.56
2022-08-31T11:36:50.325Z,102347.31
2022-08-31T11:39:35.569Z,102347.63
2022-08-31T11:42:28.319Z,102336.59
2022-08-31T11:45:02.395Z,102339.34
2022-08-31T11:47:28.914Z,102338.13
2022-08-31T11:50:03.952Z,102338.84
2022-08-31T11:52:43.402Z,102334.47
2022-08-31T11:55:27.081Z,102329.50
2022-08-31T11:58:11.761Z,102323.19
2022-08-31T12:00:51.927Z,102316.28
2022-08-31T12:03:36.949Z,102324.72
2022-08-31T12:06:05.263Z,102325.56
2022-08-31T12:08:52.648Z,102322.16
2022-08-31T12:11:25.391Z,102323.03
2022-08-31T12:14:01.262Z,102320.94
2022-08-31T12:16:39.668Z,102309.53
2022-08-31T12:19:49.845Z,102311.63
2022-08-31T12:22:47.533Z,102292.56
2022-08-31T12:25:41.844Z,102294.66
2022-08-31T12:28:36.240Z,102298.66
2022-08-31T12:31:15.751Z,102300.75
2022-08-31T12:34:12.077Z,102292.81
2022-08-31T12:36:38.637Z,102289.72
2022-08-31T12:39:09.835Z,102298.88
2022-08-31T12:41:56.670Z,102295.44
2022-08-31T12:44:26.629Z,102309.44
2022-08-31T12:47:15.312Z,102302.34
2022-08-31T12:49:56.904Z,102288.81
2022-08-31T12:52:44.974Z,102289.09
2022-08-31T12:55:40.609Z,102281.47
2022-08-31T12:58:34.379Z,102272.03
2022-08-31T13:01:24.900Z,102282.28
2022-08-31T13:03:55.559Z,102282.66
2022-08-31T13:06:28.970Z,102271.63
2022-08-31T13:08:55.966Z,102265.97
2022-08-31T13:11:44.356Z,102268.69
2022-08-31T13:14:20.883Z,102276.00
2022-08-31T13:17:18.546Z,102263.75
2022-08-31T13:19:56.393Z,102282.22
2022-08-31T13:22:29.372Z,102262.78
2022-08-31T13:24:57.510Z,102255.84
2022-08-31T13:27:30.015Z,102264.34
2022-08-31T13:29:59.202Z,102261.16
2022-08-31T13:32:27.481Z,102254.75
2022-08-31T13:34:54.987Z,102253.72
2022-08-31T13:37:28.467Z,102245.78
2022-08-31T13:39:56.011Z,102249.25
2022-08-31T13:42:42.805Z,102246.53
2022-08-31T13:45:30.479Z,102252.38
2022-08-31T13:48:02.409Z,102253.59
2022-08-31T13:50:52.268Z,102243.56
2022-08-31T13:53:54.652Z,102249.09
2022-08-31T13:56:48.877Z,102249.69
2022-08-31T13:59:20.032Z,102249.38
2022-08-31T14:01:48.061Z,102238.41
2022-08-31T14:04:48.713Z,102241.53
2022-08-31T14:07:46.589Z,102230.84
2022-08-31T14:10:19.251Z,102239.69
2022-08-31T14:13:02.476Z,102249.94
2022-08-31T14:15:53.456Z,102241.34
2022-08-31T14:18:42.943Z,102223.84
2022-08-31T14:21:21.131Z,102235.81
2022-08-31T14:24:02.830Z,102230.44
2022-08-31T14:26:41.765Z,102225.34
2022-08-31T14:29:12.345Z,102220.56
2022-08-31T14:31:53.629Z,102220.78
2022-08-31T14:34:30.259Z,102220.47
2022-08-31T14:37:06.599Z,102225.63
2022-08-31T14:39:37.190Z,102222.03
2022-08-31T14:42:11.654Z,102212.56
2022-08-31T14:44:41.455Z,102229.44
2022-08-31T14:47:09.910Z,102217.31
2022-08-31T14:49:36.997Z,102199.84
2022-08-31T14:52:06.197Z,102202.91
2022-08-31T14:54:37.768Z,102197.97
2022-08-31T14:57:25.085Z,102211.22
2022-08-31T14:59:56.818Z,102207.78
2022-08-31T15:02:24.574Z,102201.09
2022-08-31T15:04:51.731Z,102198.38
2022-08-31T15:07:19.507Z,102210.91
2022-08-31T15:09:47.820Z,102194.28
2022-08-31T15:12:16.895Z,102193.38
2022-08-31T15:14:44.827Z,102206.69
2022-08-31T15:17:16.662Z,102194.00
2022-08-31T15:19:47.631Z,102192.91
2022-08-31T15:22:15.847Z,102190.63
2022-08-31T15:24:44.751Z,102194.59
2022-08-31T15:27:15.530Z,102192.16
2022-08-31T15:29:43.444Z,102197.06
2022-08-31T15:32:10.321Z,102187.78
2022-08-31T15:34:37.800Z,102197.91
2022-08-31T15:37:06.093Z,102195.09
2022-08-31T15:39:35.685Z,102191.50
2022-08-31T15:42:04.935Z,102188.34
2022-08-31T15:44:33.470Z,102191.38
2022-08-31T15:47:20.929Z,102193.59
2022-08-31T15:49:47.344Z,102186.25
2022-08-31T15:52:13.973Z,102181.69
2022-08-31T15:54:40.679Z,102172.38
2022-08-31T15:57:08.102Z,102181.47
2022-08-31T15:59:39.379Z,102187.66
2022-08-31T16:02:07.081Z,102186.25
2022-08-31T16:04:38.357Z,102184.94
2022-08-31T16:07:07.589Z,102187.28
2022-08-31T16:09:34.532Z,102176.50
2022-08-31T16:12:02.227Z,102176.28
2022-08-31T16:14:33.414Z,102169.75
2022-08-31T16:17:00.037Z,102166.78
2022-08-31T16:19:35.039Z,102169.97
2022-08-31T16:22:04.042Z,102169.66
2022-08-31T16:24:37.084Z,102164.66
2022-08-31T16:27:09.521Z,102161.16
2022-08-31T16:29:36.398Z,102161.06
2022-08-31T16:32:03.756Z,102156.28
2022-08-31T16:34:31.559Z,102153.03
2022-08-31T16:36:58.272Z,102144.84
2022-08-31T16:39:28.021Z,102157.19
2022-08-31T16:41:54.985Z,102153.16
2022-08-31T16:44:21.498Z,102156.56
2022-08-31T16:46:48.283Z,102163.19
2022-08-31T16:49:33.592Z,102155.81
2022-08-31T16:52:11.021Z,102166.59
2022-08-31T16:54:42.837Z,102159.25
2022-08-31T16:57:10.781Z,102161.00
2022-08-31T16:59:37.361Z,102157.44
2022-08-31T17:02:04.003Z,102158.38
2022-08-31T17:07:18.416Z,102166.66
2022-08-31T17:09:45.694Z,102156.34
2022-08-31T17:12:17.184Z,102155.84
2022-08-31T17:14:50.211Z,102173.13
2022-08-31T17:17:26.339Z,102170.13
2022-08-31T17:19:55.717Z,102161.06
2022-08-31T17:22:29.892Z,102161.09
2022-08-31T17:25:00.260Z,102163.44
2022-08-31T17:27:27.324Z,102177.78
2022-08-31T17:29:56.323Z,102171.16
2022-08-31T17:32:26.463Z,102173.56
2022-08-31T17:34:54.530Z,102168.81
2022-08-31T17:37:27.822Z,102166.19
2022-08-31T17:39:55.964Z,102165.63
2022-08-31T17:42:27.025Z,102171.78
2022-08-31T17:44:54.659Z,102166.44
2022-08-31T17:47:23.507Z,102172.84
2022-08-31T17:49:50.968Z,102172.72
2022-08-31T17:52:20.577Z,102166.75
2022-08-31T17:54:48.553Z,102170.50
2022-08-31T17:57:16.214Z,102175.41
2022-08-31T17:59:46.314Z,102178.81
2022-08-31T18:02:19.075Z,102176.09
2022-08-31T18:04:45.742Z,102183.16
2022-08-31T18:07:12.533Z,102183.69
2022-08-31T18:09:41.459Z,102179.78
2022-08-31T18:12:08.910Z,102186.53
2022-08-31T18:14:38.141Z,102182.13
2022-08-31T18:17:08.525Z,102186.81
2022-08-31T18:19:35.118Z,102189.50
2022-08-31T18:22:01.641Z,102192.19
2022-08-31T18:24:31.124Z,102188.59
2022-08-31T18:26:58.880Z,102193.19
2022-08-31T18:29:26.776Z,102194.59
2022-08-31T18:31:54.228Z,102190.06
2022-08-31T18:34:23.226Z,102198.38
2022-08-31T18:36:51.619Z,102194.28
2022-08-31T18:39:34.774Z,102203.34
2022-08-31T18:42:27.721Z,102207.06
2022-08-31T18:45:13.365Z,102211.94
2022-08-31T18:47:39.991Z,102214.66
2022-08-31T18:50:06.882Z,102222.22
2022-08-31T18:52:33.440Z,102221.66
2022-08-31T18:55:01.003Z,102229.34
2022-08-31T18:57:27.940Z,102221.19
2022-08-31T18:59:54.983Z,102223.59
2022-08-31T19:02:23.085Z,102224.59
2022-08-31T19:04:51.142Z,102227.22
2022-08-31T19:07:22.345Z,102224.88
2022-08-31T19:09:49.439Z,102226.91
2022-08-31T19:12:24.551Z,102224.03
2022-08-31T19:14:52.007Z,102232.44
2022-08-31T19:17:19.832Z,102228.69
2022-08-31T19:19:48.975Z,102227.56
2022-08-31T19:22:16.783Z,102223.81
2022-08-31T19:24:43.521Z,102217.28
2022-08-31T19:27:10.643Z,102228.19
2022-08-31T19:29:38.371Z,102223.81
2022-08-31T19:32:06.459Z,102228.34
2022-08-31T19:34:36.226Z,102220.19
2022-08-31T19:37:03.224Z,102223.41
2022-08-31T19:39:36.287Z,102218.13
2022-08-31T19:42:07.085Z,102223.56
2022-08-31T19:47:25.678Z,102221.16
2022-08-31T19:49:52.802Z,102224.91
2022-08-31T19:52:20.523Z,102227.34
2022-08-31T19:54:48.554Z,102224.00
2022-08-31T19:57:16.720Z,102221.47
2022-08-31T19:59:43.537Z,102223.56
2022-08-31T20:02:10.221Z,102219.34
2022-08-31T20:04:36.826Z,102222.53
2022-08-31T20:07:06.525Z,102226.72
2022-08-31T20:09:34.883Z,102220.53
2022-08-31T20:12:02.092Z,102226.56
2022-08-31T20:14:28.708Z,102230.19
2022-08-31T20:16:55.261Z,102230.16
2022-08-31T20:19:25.188Z,102230.44
2022-08-31T20:21:54.070Z,102234.03
2022-08-31T20:24:22.982Z,102242.75
2022-08-31T20:26:51.826Z,102237.00
2022-08-31T20:29:19.537Z,102236.56
2022-08-31T20:31:49.485Z,102236.75
2022-08-31T20:34:19.137Z,102239.09
2022-08-31T20:36:48.297Z,102243.19
2022-08-31T20:39:17.292Z,102241.19
2022-08-31T20:41:49.186Z,102242.63
2022-08-31T20:44:27.702Z,102242.22
2022-08-31T20:47:18.897Z,102244.63
2022-08-31T20:49:50.505Z,102253.06
2022-08-31T20:52:17.721Z,102249.56
2022-08-31T20:54:44.622Z,102247.22
2022-08-31T20:57:13.471Z,102250.94
2022-08-31T20:59:41.391Z,102248.69
2022-08-31T21:02:11.306Z,102257.28
2022-08-31T21:04:42.347Z,102256.41
2022-08-31T21:07:11.964Z,102257.22
2022-08-31T21:09:40.947Z,102254.84
2022-08-31T21:12:07.973Z,102259.78
2022-08-31T21:14:36.549Z,102270.59
2022-08-31T21:17:06.045Z,102263.09
2022-08-31T21:19:39.197Z,102272.38
2022-08-31T21:22:07.625Z,102269.66
2022-08-31T21:24:38.662Z,102270.31
2022-08-31T21:27:06.933Z,102272.78
2022-08-31T21:29:35.467Z,102274.19
2022-08-31T21:32:04.482Z,102265.53
2022-08-31T21:34:31.521Z,102270.63
2022-08-31T21:36:58.062Z,102282.66
2022-08-31T21:39:24.970Z,102280.28
2022-08-31T21:41:51.592Z,102275.53
2022-08-31T21:44:20.859Z,102280.94
2022-08-31T21:46:50.644Z,102281.91
2022-08-31T21:49:18.268Z,102284.84
2022-08-31T21:51:50.753Z,102281.41
2022-08-31T21:54:19.344Z,102288.09
2022-08-31T21:56:48.409Z,102284.97
2022-08-31T21:59:16.788Z,102291.84
2022-08-31T22:01:43.990Z,102284.31
2022-08-31T22:04:12.149Z,102291.22
2022-08-31T22:06:40.792Z,102290.25
2022-08-31T22:09:18.833Z,102288.91
2022-08-31T22:11:46.788Z,102282.88
2022-08-31T22:14:18.949Z,102284.81
2022-08-31T22:16:48.013Z,102281.56
2022-08-31T22:19:20.699Z,102284.91
2022-08-31T22:21:50.143Z,102296.03
2022-08-31T22:24:27.097Z,102297.44
2022-08-31T22:26:55.687Z,102288.16
2022-08-31T22:29:25.085Z,102296.69
2022-08-31T22:31:54.124Z,102290.78
2022-08-31T22:34:21.164Z,102291.31
2022-08-31T22:36:50.423Z,102296.47
2022-08-31T22:39:19.161Z,102295.38
2022-08-31T22:41:47.203Z,102300.69
2022-08-31T22:44:17.298Z,102301.97
2022-08-31T22:46:44.296Z,102298.25
2022-08-31T22:49:10.996Z,102301.72
2022-08-31T22:51:39.687Z,102295.53
2022-08-31T22:54:06.927Z,102297.63
2022-08-31T22:56:35.417Z,102298.38
2022-08-31T22:59:05.000Z,102295.75
2022-08-31T23:01:35.109Z,102305.06
2022-08-31T23:04:06.571Z,102299.56
2022-08-31T23:06:35.078Z,102300.56
2022-08-31T23:09:02.903Z,102294.41
2022-08-31T23:11:29.591Z,102292.81
2022-08-31T23:13:58.577Z,102289.09
2022-08-31T23:16:34.655Z,102292.56
2022-08-31T23:19:12.139Z,102288.22
2022-08-31T23:21:44.999Z,102282.91
2022-08-31T23:24:13.049Z,102280.16
2022-08-31T23:26:40.610Z,102281.16
2022-08-31T23:29:09.373Z,102275.13
2022-08-31T23:31:37.665Z,102280.31
2022-08-31T23:34:09.659Z,102278.78
2022-08-31T23:36:36.199Z,102271.91
2022-08-31T23:39:04.914Z,102272.72
2022-08-31T23:41:34.804Z,102282.56
2022-08-31T23:44:08.629Z,102269.88
2022-08-31T23:46:36.997Z,102270.22
2022-08-31T23:49:06.878Z,102275.13
2022-08-31T23:51:33.623Z,102275.28
2022-08-31T23:54:00.882Z,102271.91
2022-08-31T23:56:36.068Z,102274.59
2022-08-31T23:59:08.915Z,102272.00
